createdAt,value
2023-03-11T00:00:36.072Z,0.50
2023-03-11T00:03:05.926Z,0.50
2023-03-11T00:05:36.603Z,0.40
2023-03-11T00:08:06.606Z,0.40
2023-03-11T00:10:36.895Z,0.40
2023-03-11T00:13:07.799Z,0.40
2023-03-11T00:15:36.649Z,0.40
2023-03-11T00:18:05.429Z,0.40
2023-03-11T00:20:35.729Z,0.40
2023-03-11T00:23:04.871Z,0.40
2023-03-11T00:25:35.116Z,0.40
2023-03-11T00:28:04.551Z,0.40
2023-03-11T00:30:34.250Z,0.40
2023-03-11T00:33:02.686Z,0.40
2023-03-11T00:35:33.382Z,0.30
2023-03-11T00:38:03.490Z,0.30
2023-03-11T00:40:33.731Z,0.40
2023-03-11T00:43:02.458Z,0.40
2023-03-11T00:45:34.026Z,0.40
2023-03-11T00:48:02.313Z,0.40
2023-03-11T00:50:32.001Z,0.40
2023-03-11T00:53:00.978Z,0.40
2023-03-11T00:55:31.085Z,0.30
2023-03-11T00:58:01.457Z,0.30
2023-03-11T01:00:31.147Z,0.30
2023-03-11T01:03:01.665Z,0.30
2023-03-11T01:05:31.652Z,0.30
2023-03-11T01:08:00.843Z,0.30
2023-03-11T01:10:29.506Z,0.30
2023-03-11T01:12:57.580Z,0.40
2023-03-11T01:15:28.309Z,0.40
2023-03-11T01:17:58.116Z,0.40
2023-03-11T01:20:27.769Z,0.40
2023-03-11T01:22:56.076Z,0.40
2023-03-11T01:25:25.432Z,0.40
2023-03-11T01:27:53.635Z,0.40
2023-03-11T01:30:25.842Z,0.40
2023-03-11T01:32:55.570Z,0.40
2023-03-11T01:35:25.616Z,0.40
2023-03-11T01:37:55.339Z,0.50
2023-03-11T01:40:27.135Z,0.40
2023-03-11T01:42:55.172Z,0.50
2023-03-11T01:45:36.493Z,0.40
2023-03-11T01:48:04.801Z,0.40
2023-03-11T01:50:37.645Z,0.50
2023-03-11T01:53:08.169Z,0.50
2023-03-11T01:55:36.816Z,0.50
2023-03-11T01:58:08.307Z,0.50
2023-03-11T02:00:38.345Z,0.40
2023-03-11T02:03:12.528Z,0.40
2023-03-11T02:05:42.108Z,0.40
2023-03-11T02:08:11.815Z,0.40
2023-03-11T02:10:42.194Z,0.40
2023-03-11T02:13:10.669Z,0.40
2023-03-11T02:15:40.013Z,0.40
2023-03-11T02:18:09.522Z,0.40
2023-03-11T02:20:46.535Z,0.40
2023-03-11T02:23:18.495Z,0.40
2023-03-11T02:25:53.066Z,0.40
2023-03-11T02:28:23.321Z,0.40
2023-03-11T02:30:52.557Z,0.40
2023-03-11T02:33:21.111Z,0.40
2023-03-11T02:35:49.562Z,0.40
2023-03-11T02:38:17.609Z,0.40
2023-03-11T02:40:51.763Z,0.40
2023-03-11T02:43:24.830Z,0.40
2023-03-11T02:45:53.243Z,0.30
2023-03-11T02:48:22.576Z,0.30
2023-03-11T02:50:50.799Z,0.30
2023-03-11T02:53:18.936Z,0.30
2023-03-11T02:55:47.148Z,0.20
2023-03-11T02:58:15.241Z,0.20
2023-03-11T03:00:44.858Z,0.10
2023-03-11T03:03:13.053Z,0.10
2023-03-11T03:05:41.127Z,0.10
2023-03-11T03:08:09.209Z,0.10
2023-03-11T03:10:37.539Z,0.00
2023-03-11T03:13:05.963Z,0.10
2023-03-11T03:15:35.111Z,0.10
2023-03-11T03:18:04.909Z,0.10
2023-03-11T03:20:34.330Z,0.10
2023-03-11T03:23:02.918Z,0.10
2023-03-11T03:25:31.319Z,0.10
2023-03-11T03:27:59.434Z,0.20
2023-03-11T03:30:28.399Z,0.20
2023-03-11T03:32:56.476Z,0.20
2023-03-11T03:35:25.862Z,0.20
2023-03-11T03:37:55.089Z,0.20
2023-03-11T03:40:23.187Z,0.20
2023-03-11T03:42:51.237Z,0.20
2023-03-11T03:45:19.500Z,0.10
2023-03-11T03:47:47.495Z,0.10
2023-03-11T03:50:15.795Z,0.10
2023-03-11T03:52:45.290Z,0.10
2023-03-11T03:55:13.403Z,0.10
2023-03-11T03:57:41.485Z,0.10
2023-03-11T04:00:10.740Z,0.10
2023-03-11T04:02:39.086Z,0.10
2023-03-11T04:05:08.170Z,0.10
2023-03-11T04:07:36.803Z,0.10
2023-03-11T04:10:07.763Z,0.00
2023-03-11T04:12:36.015Z,0.00
2023-03-11T04:15:04.655Z,0.10
2023-03-11T04:17:32.833Z,0.10
2023-03-11T04:20:00.889Z,0.10
2023-03-11T04:22:29.060Z,0.00
2023-03-11T04:24:57.083Z,0.00
2023-03-11T04:27:26.930Z,0.00
2023-03-11T04:29:54.971Z,0.00
2023-03-11T04:32:23.373Z,0.00
2023-03-11T04:34:51.864Z,0.00
2023-03-11T04:37:19.940Z,0.00
2023-03-11T04:39:48.113Z,0.10
2023-03-11T04:42:16.258Z,0.10
2023-03-11T04:44:45.744Z,0.10
2023-03-11T04:47:14.079Z,0.10
2023-03-11T04:49:42.153Z,0.10
2023-03-11T04:52:10.208Z,0.10
2023-03-11T04:54:38.200Z,0.10
2023-03-11T04:57:06.710Z,0.10
2023-03-11T04:59:34.783Z,0.10
2023-03-11T05:02:04.211Z,0.00
2023-03-11T05:04:32.264Z,0.00
2023-03-11T05:07:00.495Z,-0.10
2023-03-11T05:09:28.485Z,-0.10
2023-03-11T05:11:56.917Z,-0.20
2023-03-11T05:14:24.986Z,-0.20
2023-03-11T05:16:53.058Z,-0.20
2023-03-11T05:19:35.478Z,-0.30
2023-03-11T05:22:05.025Z,-0.30
2023-03-11T05:24:33.621Z,-0.30
2023-03-11T05:27:02.284Z,-0.30
2023-03-11T05:29:30.429Z,-0.30
2023-03-11T05:31:58.500Z,-0.30
2023-03-11T05:34:28.033Z,-0.30
2023-03-11T05:36:56.085Z,-0.30
2023-03-11T05:39:24.107Z,-0.40
2023-03-11T05:41:52.136Z,-0.40
2023-03-11T05:44:20.147Z,-0.50
2023-03-11T05:46:48.392Z,-0.60
2023-03-11T05:49:16.460Z,-0.60
2023-03-11T05:51:45.905Z,-0.60
2023-03-11T05:54:15.280Z,-0.60
2023-03-11T05:56:43.902Z,-0.60
2023-03-11T05:59:15.038Z,-0.70
2023-03-11T06:01:44.959Z,-0.70
2023-03-11T06:04:13.414Z,-0.70
2023-03-11T06:06:42.238Z,-0.70
2023-03-11T06:09:14.486Z,-0.70
2023-03-11T06:11:43.081Z,-0.80
2023-03-11T06:14:13.572Z,-0.70
2023-03-11T06:16:42.581Z,-0.70
2023-03-11T06:19:11.084Z,-0.70
2023-03-11T06:21:39.414Z,-0.60
2023-03-11T06:24:07.989Z,-0.60
2023-03-11T06:26:37.656Z,-0.50
2023-03-11T06:29:05.791Z,-0.50
2023-03-11T06:31:33.995Z,-0.40
2023-03-11T06:34:02.052Z,-0.40
2023-03-11T06:36:30.146Z,-0.30
2023-03-11T06:38:58.183Z,-0.20
2023-03-11T06:41:26.835Z,-0.20
2023-03-11T06:43:56.217Z,-0.10
2023-03-11T06:46:24.836Z,-0.10
2023-03-11T06:48:52.916Z,0.00
2023-03-11T06:51:21.889Z,0.00
2023-03-11T06:53:51.879Z,0.10
2023-03-11T06:56:20.846Z,0.10
2023-03-11T06:58:49.312Z,0.20
2023-03-11T07:01:20.497Z,0.30
2023-03-11T07:03:50.157Z,0.30
2023-03-11T07:06:20.108Z,0.40
2023-03-11T07:08:48.899Z,0.50
2023-03-11T07:11:19.069Z,0.50
2023-03-11T07:13:47.880Z,0.50
2023-03-11T07:16:19.719Z,0.60
2023-03-11T07:18:49.460Z,0.60
2023-03-11T07:21:19.152Z,0.70
2023-03-11T07:23:49.217Z,0.70
2023-03-11T07:26:18.734Z,0.80
2023-03-11T07:28:47.322Z,0.90
2023-03-11T07:31:17.547Z,1.00
2023-03-11T07:33:47.744Z,1.00
2023-03-11T07:36:17.688Z,1.30
2023-03-11T07:38:47.103Z,1.70
2023-03-11T07:41:16.696Z,2.50
2023-03-11T07:43:45.500Z,3.10
2023-03-11T07:46:16.571Z,3.70
2023-03-11T07:48:47.022Z,4.10
2023-03-11T07:51:18.477Z,4.30
2023-03-11T07:53:47.064Z,4.40
2023-03-11T07:56:17.045Z,4.80
2023-03-11T07:58:45.976Z,5.00
2023-03-11T08:01:18.268Z,4.90
2023-03-11T08:03:49.589Z,5.00
2023-03-11T08:06:20.718Z,4.90
2023-03-11T08:08:49.103Z,5.40
2023-03-11T08:11:18.018Z,5.90
2023-03-11T08:13:47.432Z,6.20
2023-03-11T08:16:17.269Z,6.40
2023-03-11T08:18:46.880Z,6.80
2023-03-11T08:21:17.570Z,6.70
2023-03-11T08:23:47.140Z,7.00
2023-03-11T08:26:17.884Z,7.30
2023-03-11T08:28:46.737Z,7.10
2023-03-11T08:31:16.126Z,6.90
2023-03-11T08:33:45.271Z,7.40
2023-03-11T08:36:14.821Z,7.10
2023-03-11T08:38:43.511Z,7.20
2023-03-11T08:41:11.710Z,7.30
2023-03-11T08:43:40.321Z,7.10
2023-03-11T08:46:08.805Z,7.20
2023-03-11T08:48:38.799Z,7.30
2023-03-11T08:51:15.352Z,7.30
2023-03-11T08:53:43.664Z,7.40
2023-03-11T08:56:11.667Z,7.90
2023-03-11T08:58:40.001Z,7.30
2023-03-11T09:01:09.208Z,7.40
2023-03-11T09:03:38.270Z,7.80
2023-03-11T09:06:09.602Z,7.80
2023-03-11T09:08:39.076Z,7.60
2023-03-11T09:11:07.198Z,7.30
2023-03-11T09:13:35.409Z,7.80
2023-03-11T09:16:05.896Z,7.90
2023-03-11T09:18:34.194Z,7.50
2023-03-11T09:21:02.400Z,7.70
2023-03-11T09:23:30.487Z,8.10
2023-03-11T09:25:59.960Z,8.30
2023-03-11T09:28:31.213Z,8.40
2023-03-11T09:30:59.558Z,8.00
2023-03-11T09:33:27.711Z,7.40
2023-03-11T09:35:56.050Z,7.60
2023-03-11T09:38:24.191Z,7.80
2023-03-11T09:41:00.591Z,7.80
2023-03-11T09:43:51.132Z,7.70
2023-03-11T09:46:40.049Z,7.60
2023-03-11T09:49:20.644Z,7.60
2023-03-11T09:51:59.207Z,7.00
2023-03-11T09:54:29.076Z,7.10
2023-03-11T09:56:58.661Z,7.10
2023-03-11T09:59:31.770Z,7.30
2023-03-11T10:02:01.221Z,7.80
2023-03-11T10:04:34.248Z,8.40
2023-03-11T10:07:04.355Z,8.00
2023-03-11T10:09:40.796Z,7.90
2023-03-11T10:12:21.415Z,7.80
2023-03-11T10:15:09.521Z,7.30
2023-03-11T10:18:03.369Z,6.60
2023-03-11T10:20:40.012Z,6.40
2023-03-11T10:23:23.160Z,6.60
2023-03-11T10:25:59.421Z,7.10
2023-03-11T10:28:34.582Z,7.00
2023-03-11T10:31:08.410Z,7.00
2023-03-11T10:33:42.207Z,7.10
2023-03-11T10:36:17.308Z,7.20
2023-03-11T10:38:48.763Z,7.00
2023-03-11T10:41:22.271Z,7.30
2023-03-11T10:43:55.855Z,7.30
2023-03-11T10:46:26.483Z,7.30
2023-03-11T10:48:54.817Z,6.90
2023-03-11T10:51:26.741Z,6.90
2023-03-11T10:53:56.476Z,7.30
2023-03-11T10:56:32.842Z,7.70
2023-03-11T10:59:05.232Z,7.90
2023-03-11T11:01:33.622Z,8.40
2023-03-11T11:04:02.993Z,8.60
2023-03-11T11:06:33.416Z,8.90
2023-03-11T11:09:15.843Z,8.30
2023-03-11T11:11:44.685Z,7.90
2023-03-11T11:14:15.289Z,8.40
2023-03-11T11:16:43.451Z,7.80
2023-03-11T11:19:16.183Z,7.90
2023-03-11T11:21:48.889Z,7.60
2023-03-11T11:24:24.662Z,7.70
2023-03-11T11:27:07.103Z,7.50
2023-03-11T11:29:36.760Z,8.00
2023-03-11T11:32:20.930Z,7.90
2023-03-11T11:34:59.565Z,8.00
2023-03-11T11:37:32.213Z,8.00
2023-03-11T11:40:11.200Z,7.70
2023-03-11T11:42:41.229Z,7.80
2023-03-11T11:45:16.821Z,7.60
2023-03-11T11:47:49.422Z,7.60
2023-03-11T11:50:24.350Z,7.40
2023-03-11T11:52:57.812Z,7.30
2023-03-11T11:55:28.447Z,7.50
2023-03-11T11:57:56.566Z,7.60
2023-03-11T12:00:36.087Z,8.00
2023-03-11T12:03:23.792Z,7.70
2023-03-11T12:05:57.975Z,8.00
2023-03-11T12:08:34.508Z,8.20
2023-03-11T12:11:06.205Z,7.50
2023-03-11T12:13:50.140Z,8.20
2023-03-11T12:16:30.316Z,8.20
2023-03-11T12:19:02.521Z,8.30
2023-03-11T12:21:54.853Z,8.60
2023-03-11T12:24:43.345Z,8.40
2023-03-11T12:27:17.474Z,8.50
2023-03-11T12:29:49.119Z,9.00
2023-03-11T12:32:25.857Z,9.50
2023-03-11T12:34:54.503Z,9.80
2023-03-11T12:37:24.742Z,10.00
2023-03-11T12:39:52.842Z,10.20
2023-03-11T12:42:25.345Z,10.40
2023-03-11T12:44:53.889Z,10.60
2023-03-11T12:47:28.950Z,10.70
2023-03-11T12:50:17.856Z,10.70
2023-03-11T12:52:56.136Z,10.10
2023-03-11T12:55:35.678Z,9.70
2023-03-11T12:58:37.164Z,9.40
2023-03-11T13:01:18.661Z,9.20
2023-03-11T13:04:05.194Z,9.50
2023-03-11T13:07:08.093Z,9.80
2023-03-11T13:09:36.432Z,10.10
2023-03-11T13:12:04.879Z,10.30
2023-03-11T13:14:33.754Z,10.60
2023-03-11T13:17:25.755Z,10.90
2023-03-11T13:19:56.746Z,11.10
2023-03-11T13:23:06.022Z,11.30
2023-03-11T13:25:39.481Z,11.10
2023-03-11T13:28:29.120Z,11.10
2023-03-11T13:31:07.757Z,11.60
2023-03-11T13:33:50.512Z,12.20
2023-03-11T13:36:40.601Z,12.10
2023-03-11T13:39:23.527Z,12.20
2023-03-11T13:41:52.760Z,12.00
2023-03-11T13:44:29.618Z,12.10
2023-03-11T13:47:04.030Z,12.10
2023-03-11T13:49:38.335Z,11.90
2023-03-11T13:52:10.715Z,11.50
2023-03-11T13:54:47.710Z,10.80
2023-03-11T13:57:27.719Z,10.40
2023-03-11T13:59:57.187Z,9.90
2023-03-11T14:02:27.436Z,9.90
2023-03-11T14:04:59.553Z,9.90
2023-03-11T14:07:31.788Z,9.40
2023-03-11T14:10:19.669Z,9.60
2023-03-11T14:12:47.892Z,10.00
2023-03-11T14:15:20.336Z,10.10
2023-03-11T14:17:48.945Z,10.20
2023-03-11T14:20:19.246Z,10.60
2023-03-11T14:22:50.934Z,11.10
2023-03-11T14:25:21.454Z,10.20
2023-03-11T14:27:54.504Z,10.50
2023-03-11T14:30:25.560Z,10.00
2023-03-11T14:33:01.994Z,10.00
2023-03-11T14:35:31.837Z,9.90
2023-03-11T14:38:01.568Z,9.50
2023-03-11T14:40:32.087Z,9.20
2023-03-11T14:43:03.264Z,9.10
2023-03-11T14:45:36.364Z,9.40
2023-03-11T14:48:10.198Z,9.80
2023-03-11T14:50:38.849Z,10.50
2023-03-11T14:53:15.018Z,11.00
2023-03-11T14:55:46.428Z,11.50
2023-03-11T14:58:17.498Z,11.60
2023-03-11T15:00:50.564Z,11.70
2023-03-11T15:03:25.176Z,11.40
2023-03-11T15:05:56.714Z,10.90
2023-03-11T15:08:29.600Z,10.50
2023-03-11T15:11:08.274Z,10.80
2023-03-11T15:13:38.406Z,11.00
2023-03-11T15:16:09.487Z,11.70
2023-03-11T15:18:39.901Z,11.80
2023-03-11T15:21:15.695Z,12.30
2023-03-11T15:23:50.694Z,12.40
2023-03-11T15:26:23.382Z,11.90
2023-03-11T15:28:57.456Z,12.00
2023-03-11T15:31:31.583Z,11.60
2023-03-11T15:34:36.046Z,11.90
2023-03-11T15:37:20.714Z,12.30
2023-03-11T15:39:53.090Z,11.80
2023-03-11T15:42:25.597Z,11.60
2023-03-11T15:45:16.174Z,11.30
2023-03-11T15:47:45.093Z,10.90
2023-03-11T15:50:25.170Z,10.90
2023-03-11T15:52:56.425Z,11.00
2023-03-11T15:55:27.363Z,11.20
2023-03-11T15:58:03.420Z,11.20
2023-03-11T16:00:31.501Z,11.30
2023-03-11T16:02:59.628Z,11.20
2023-03-11T16:05:27.704Z,10.80
2023-03-11T16:07:55.916Z,10.00
2023-03-11T16:10:28.739Z,9.20
2023-03-11T16:12:57.269Z,9.20
2023-03-11T16:15:28.923Z,9.50
2023-03-11T16:17:59.254Z,9.70
2023-03-11T16:20:30.380Z,9.50
2023-03-11T16:23:01.600Z,9.50
2023-03-11T16:25:34.444Z,9.40
2023-03-11T16:28:02.929Z,9.30
2023-03-11T16:30:34.539Z,9.00
2023-03-11T16:33:04.828Z,9.10
2023-03-11T16:35:33.673Z,8.80
2023-03-11T16:38:02.562Z,8.40
2023-03-11T16:40:32.730Z,8.00
2023-03-11T16:43:03.117Z,7.60
2023-03-11T16:45:32.580Z,7.30
2023-03-11T16:48:00.905Z,7.00
2023-03-11T16:50:29.374Z,6.60
2023-03-11T16:52:58.748Z,6.10
2023-03-11T16:55:28.957Z,5.90
2023-03-11T16:57:58.685Z,5.60
2023-03-11T17:00:27.237Z,5.50
2023-03-11T17:02:55.595Z,5.40
2023-03-11T17:05:23.988Z,5.20
2023-03-11T17:07:57.112Z,5.00
2023-03-11T17:10:25.301Z,4.90
2023-03-11T17:12:57.904Z,4.70
2023-03-11T17:15:26.168Z,4.50
2023-03-11T17:17:54.408Z,4.40
2023-03-11T17:20:22.688Z,4.30
2023-03-11T17:22:50.757Z,4.20
2023-03-11T17:25:19.163Z,4.10
2023-03-11T17:27:47.746Z,3.90
2023-03-11T17:30:30.428Z,3.90
2023-03-11T17:33:04.005Z,3.80
2023-03-11T17:35:32.363Z,3.70
2023-03-11T17:38:00.670Z,3.60
2023-03-11T17:40:30.396Z,3.50
2023-03-11T17:42:58.766Z,3.40
2023-03-11T17:45:28.393Z,3.30
2023-03-11T17:47:56.541Z,3.20
2023-03-11T17:50:26.323Z,3.10
2023-03-11T17:52:54.429Z,3.00
2023-03-11T17:55:22.477Z,3.00
2023-03-11T17:57:50.672Z,2.90
2023-03-11T18:00:19.573Z,2.80
2023-03-11T18:02:51.336Z,2.70
2023-03-11T18:05:19.785Z,2.60
2023-03-11T18:07:47.891Z,2.50
2023-03-11T18:10:16.814Z,2.50
2023-03-11T18:12:46.648Z,2.40
2023-03-11T18:15:18.995Z,2.30
2023-03-11T18:17:49.199Z,2.20
2023-03-11T18:20:18.088Z,2.10
2023-03-11T18:22:47.225Z,2.00
2023-03-11T18:25:15.520Z,1.90
2023-03-11T18:27:43.981Z,1.90
2023-03-11T18:30:14.638Z,1.80
2023-03-11T18:32:42.807Z,1.70
2023-03-11T18:35:14.176Z,1.60
2023-03-11T18:37:42.590Z,1.60
2023-03-11T18:40:12.662Z,1.50
2023-03-11T18:42:40.900Z,1.50
2023-03-11T18:45:12.275Z,1.40
2023-03-11T18:47:40.609Z,1.30
2023-03-11T18:50:10.061Z,1.30
2023-03-11T18:52:39.859Z,1.20
2023-03-11T18:55:08.618Z,1.20
2023-03-11T18:57:36.847Z,1.10
2023-03-11T19:00:05.685Z,1.00
2023-03-11T19:02:33.760Z,0.90
2023-03-11T19:05:02.023Z,0.80
2023-03-11T19:07:30.129Z,0.80
2023-03-11T19:09:59.700Z,0.70
2023-03-11T19:12:29.573Z,0.60
2023-03-11T19:14:57.791Z,0.60
2023-03-11T19:17:26.063Z,0.50
2023-03-11T19:19:54.932Z,0.40
2023-03-11T19:22:23.417Z,0.40
2023-03-11T19:24:54.010Z,0.30
2023-03-11T19:27:23.612Z,0.20
2023-03-11T19:29:51.768Z,0.20
2023-03-11T19:32:20.072Z,0.10
2023-03-11T19:34:48.433Z,0.10
2023-03-11T19:37:18.178Z,0.10
2023-03-11T19:39:46.378Z,0.10
2023-03-11T19:42:14.581Z,0.00
2023-03-11T19:44:44.432Z,0.00
2023-03-11T19:47:12.857Z,0.00
2023-03-11T19:49:40.955Z,0.00
2023-03-11T19:52:09.935Z,0.00
2023-03-11T19:54:38.309Z,-0.10
2023-03-11T19:57:06.485Z,-0.10
2023-03-11T19:59:34.724Z,-0.10
2023-03-11T20:02:05.818Z,-0.20
2023-03-11T20:04:34.140Z,-0.30
2023-03-11T20:07:02.452Z,-0.30
2023-03-11T20:09:32.748Z,-0.40
2023-03-11T20:12:01.039Z,-0.50
2023-03-11T20:14:29.346Z,-0.50
2023-03-11T20:16:57.628Z,-0.60
2023-03-11T20:19:28.081Z,-0.60
2023-03-11T20:21:57.400Z,-0.70
2023-03-11T20:24:25.698Z,-0.70
2023-03-11T20:26:53.893Z,-0.70
2023-03-11T20:29:22.143Z,-0.70
2023-03-11T20:31:50.931Z,-0.80
2023-03-11T20:34:19.292Z,-0.80
2023-03-11T20:36:50.846Z,-0.80
2023-03-11T20:39:19.802Z,-0.80
2023-03-11T20:41:48.066Z,-0.90
2023-03-11T20:44:16.300Z,-0.90
2023-03-11T20:46:44.754Z,-1.00
2023-03-11T20:49:13.269Z,-1.00
2023-03-11T20:51:42.070Z,-1.00
2023-03-11T20:54:12.102Z,-1.10
2023-03-11T20:56:42.539Z,-1.10
2023-03-11T20:59:13.097Z,-1.10
2023-03-11T21:01:41.372Z,-1.20
2023-03-11T21:04:09.580Z,-1.20
2023-03-11T21:06:40.847Z,-1.20
2023-03-11T21:09:13.815Z,-1.30
2023-03-11T21:11:42.660Z,-1.30
2023-03-11T21:14:11.242Z,-1.30
2023-03-11T21:16:39.422Z,-1.40
2023-03-11T21:19:10.025Z,-1.40
2023-03-11T21:21:38.553Z,-1.50
2023-03-11T21:24:07.787Z,-1.50
2023-03-11T21:26:37.545Z,-1.60
2023-03-11T21:29:08.156Z,-1.60
2023-03-11T21:31:36.300Z,-1.60
2023-03-11T21:34:04.474Z,-1.70
2023-03-11T21:36:32.689Z,-1.70
2023-03-11T21:39:03.419Z,-1.70
2023-03-11T21:41:32.160Z,-1.70
2023-03-11T21:44:01.887Z,-1.70
2023-03-11T21:46:32.852Z,-1.70
2023-03-11T21:49:01.746Z,-1.70
2023-03-11T21:51:30.363Z,-1.70
2023-03-11T21:53:59.204Z,-1.70
2023-03-11T21:56:28.736Z,-1.70
2023-03-11T21:58:57.070Z,-1.50
2023-03-11T22:01:27.445Z,-1.40
2023-03-11T22:03:56.576Z,-1.30
2023-03-11T22:06:25.030Z,-1.30
2023-03-11T22:08:53.482Z,-1.30
2023-03-11T22:11:21.699Z,-1.30
2023-03-11T22:13:52.121Z,-1.30
2023-03-11T22:16:21.350Z,-1.40
2023-03-11T22:18:51.765Z,-1.40
2023-03-11T22:21:21.806Z,-1.50
2023-03-11T22:23:50.119Z,-1.60
2023-03-11T22:26:18.282Z,-1.60
2023-03-11T22:28:46.375Z,-1.70
2023-03-11T22:31:17.287Z,-1.70
2023-03-11T22:33:45.715Z,-1.80
2023-03-11T22:36:15.764Z,-1.80
2023-03-11T22:38:44.993Z,-1.90
2023-03-11T22:41:14.230Z,-1.90
2023-03-11T22:43:42.243Z,-1.90
2023-03-11T22:46:10.492Z,-2.00
2023-03-11T22:48:38.713Z,-2.00
2023-03-11T22:51:07.252Z,-2.10
2023-03-11T22:53:38.134Z,-2.10
2023-03-11T22:56:11.897Z,-2.20
2023-03-11T22:58:40.498Z,-2.20
2023-03-11T23:01:09.048Z,-2.30
2023-03-11T23:03:38.190Z,-2.30
2023-03-11T23:06:09.309Z,-2.30
2023-03-11T23:08:38.852Z,-2.30
2023-03-11T23:11:09.033Z,-2.30
2023-03-11T23:13:37.759Z,-2.40
2023-03-11T23:16:07.890Z,-2.40
2023-03-11T23:18:36.971Z,-2.40
2023-03-11T23:21:05.525Z,-2.50
2023-03-11T23:23:33.638Z,-2.50
2023-03-11T23:26:10.368Z,-2.50
2023-03-11T23:28:41.114Z,-2.50
2023-03-11T23:31:13.611Z,-2.50
2023-03-11T23:33:42.595Z,-2.50
2023-03-11T23:36:12.788Z,-2.50
2023-03-11T23:38:41.235Z,-2.50
2023-03-11T23:41:12.331Z,-2.50
2023-03-11T23:43:40.877Z,-2.50
2023-03-11T23:46:10.244Z,-2.50
2023-03-11T23:48:39.259Z,-2.50
2023-03-11T23:51:08.396Z,-2.50
2023-03-11T23:53:37.415Z,-2.50
2023-03-11T23:56:12.494Z,-2.50
2023-03-11T23:58:41.018Z,-2.50
